sensor_id;sensor_type;location;lat;lon;timestamp;temperature;humidity
76211;DHT22;65003;49.518;11.280;2024-03-23T05:26:05;11.70;99.90
76211;DHT22;65003;49.518;11.280;2024-03-23T05:28:32;11.80;99.90
76211;DHT22;65003;49.518;11.280;2024-03-23T05:30:58;11.90;99.90
76211;DHT22;65003;49.518;11.280;2024-03-23T05:33:25;11.90;99.90
76211;DHT22;65003;49.518;11.280;2024-03-23T05:35:57;12.00;99.90
76211;DHT22;65003;49.518;11.280;2024-03-23T05:38:23;12.00;99.90
76211;DHT22;65003;49.518;11.280;2024-03-23T05:40:55;12.00;99.90
76211;DHT22;65003;49.518;11.280;2024-03-23T05:43:21;12.00;99.90
76211;DHT22;65003;49.518;11.280;2024-03-23T05:45:54;12.10;99.90
76211;DHT22;65003;49.518;11.280;2024-03-23T05:48:21;12.20;99.90
76211;DHT22;65003;49.518;11.280;2024-03-23T05:50:48;12.30;99.90
76211;DHT22;65003;49.518;11.280;2024-03-23T05:53:15;12.40;99.90
76211;DHT22;65003;49.518;11.280;2024-03-23T05:55:42;12.50;99.90
76211;DHT22;65003;49.518;11.280;2024-03-23T05:58:08;12.90;99.90
76211;DHT22;65003;49.518;11.280;2024-03-23T06:00:35;12.60;99.90
76211;DHT22;65003;49.518;11.280;2024-03-23T06:03:01;12.60;99.90
76211;DHT22;65003;49.518;11.280;2024-03-23T06:05:28;12.70;99.90
76211;DHT22;65003;49.518;11.280;2024-03-23T06:07:54;12.80;99.90
76211;DHT22;65003;49.518;11.280;2024-03-23T06:10:21;12.80;99.90
76211;DHT22;65003;49.518;11.280;2024-03-23T06:12:48;12.90;99.90
76211;DHT22;65003;49.518;11.280;2024-03-23T06:15:14;12.90;99.90
76211;DHT22;65003;49.518;11.280;2024-03-23T06:17:41;12.90;99.90
76211;DHT22;65003;49.518;11.280;2024-03-23T06:20:08;13.00;99.90
76211;DHT22;65003;49.518;11.280;2024-03-23T06:22:34;13.00;99.90
76211;DHT22;65003;49.518;11.280;2024-03-23T06:25:01;13.10;99.90
76211;DHT22;65003;49.518;11.280;2024-03-23T06:27:28;13.10;99.90
76211;DHT22;65003;49.518;11.280;2024-03-23T06:29:54;13.10;99.90
76211;DHT22;65003;49.518;11.280;2024-03-23T06:32:21;13.00;99.90
76211;DHT22;65003;49.518;11.280;2024-03-23T06:34:47;13.00;99.90
76211;DHT22;65003;49.518;11.280;2024-03-23T06:37:14;12.80;99.90
76211;DHT22;65003;49.518;11.280;2024-03-23T06:39:41;12.20;99.90
76211;DHT22;65003;49.518;11.280;2024-03-23T06:42:07;12.80;99.90
76211;DHT22;65003;49.518;11.280;2024-03-23T06:44:34;12.70;99.90
76211;DHT22;65003;49.518;11.280;2024-03-23T06:47:00;12.70;99.90
76211;DHT22;65003;49.518;11.280;2024-03-23T06:49:27;12.70;99.90
76211;DHT22;65003;49.518;11.280;2024-03-23T06:51:53;12.60;99.90
76211;DHT22;65003;49.518;11.280;2024-03-23T06:54:20;12.40;99.90
76211;DHT22;65003;49.518;11.280;2024-03-23T06:56:47;12.50;99.90
76211;DHT22;65003;49.518;11.280;2024-03-23T06:59:13;12.50;99.90
76211;DHT22;65003;49.518;11.280;2024-03-23T07:01:40;12.40;99.90
76211;DHT22;65003;49.518;11.280;2024-03-23T07:04:06;12.30;99.90
76211;DHT22;65003;49.518;11.280;2024-03-23T07:06:33;12.30;99.90
76211;DHT22;65003;49.518;11.280;2024-03-23T07:09:00;12.20;99.90
76211;DHT22;65003;49.518;11.280;2024-03-23T07:11:26;12.20;99.90
76211;DHT22;65003;49.518;11.280;2024-03-23T07:13:53;12.20;99.90
76211;DHT22;65003;49.518;11.280;2024-03-23T07:16:21;12.20;99.90
76211;DHT22;65003;49.518;11.280;2024-03-23T07:18:49;12.10;99.90
76211;DHT22;65003;49.518;11.280;2024-03-23T07:21:14;12.20;99.90
76211;DHT22;65003;49.518;11.280;2024-03-23T07:23:42;12.20;99.90
76211;DHT22;65003;49.518;11.280;2024-03-23T07:26:08;12.20;99.90
76211;DHT22;65003;49.518;11.280;2024-03-23T07:28:35;12.10;99.90
76211;DHT22;65003;49.518;11.280;2024-03-23T07:31:05;12.10;99.90
76211;DHT22;65003;49.518;11.280;2024-03-23T07:33:31;12.00;99.90
76211;DHT22;65003;49.518;11.280;2024-03-23T07:35:58;11.90;99.90
76211;DHT22;65003;49.518;11.280;2024-03-23T07:38:24;12.00;99.90
76211;DHT22;65003;49.518;11.280;2024-03-23T07:40:52;11.90;99.90
76211;DHT22;65003;49.518;11.280;2024-03-23T07:43:19;11.90;99.90
76211;DHT22;65003;49.518;11.280;2024-03-23T07:45:51;12.00;99.90
76211;DHT22;65003;49.518;11.280;2024-03-23T07:48:12;12.00;99.90
76211;DHT22;65003;49.518;11.280;2024-03-23T07:50:39;11.90;99.90
76211;DHT22;65003;49.518;11.280;2024-03-23T07:53:05;11.90;99.90
76211;DHT22;65003;49.518;11.280;2024-03-23T07:55:32;11.90;99.90
76211;DHT22;65003;49.518;11.280;2024-03-23T07:57:58;11.90;99.90
76211;DHT22;65003;49.518;11.280;2024-03-23T08:00:25;11.90;99.90
76211;DHT22;65003;49.518;11.280;2024-03-23T08:02:51;11.80;99.90
76211;DHT22;65003;49.518;11.280;2024-03-23T08:05:18;11.70;99.90
76211;DHT22;65003;49.518;11.280;2024-03-23T08:07:45;12.20;99.90
76211;DHT22;65003;49.518;11.280;2024-03-23T08:10:11;11.70;99.90
76211;DHT22;65003;49.518;11.280;2024-03-23T08:12:38;11.70;99.90
76211;DHT22;65003;49.518;11.280;2024-03-23T08:15:05;11.60;99.90
76211;DHT22;65003;49.518;11.280;2024-03-23T08:17:31;11.70;99.90
76211;DHT22;65003;49.518;11.280;2024-03-23T08:19:58;11.80;99.90
76211;DHT22;65003;49.518;11.280;2024-03-23T08:22:25;11.90;99.90
76211;DHT22;65003;49.518;11.280;2024-03-23T08:24:51;11.90;99.90
76211;DHT22;65003;49.518;11.280;2024-03-23T08:27:18;11.90;99.90
76211;DHT22;65003;49.518;11.280;2024-03-23T08:29:45;11.60;99.90
76211;DHT22;65003;49.518;11.280;2024-03-23T08:32:11;11.20;99.90
76211;DHT22;65003;49.518;11.280;2024-03-23T08:34:38;11.00;99.90
76211;DHT22;65003;49.518;11.280;2024-03-23T08:37:04;10.90;99.90
76211;DHT22;65003;49.518;11.280;2024-03-23T08:39:31;10.90;99.90
76211;DHT22;65003;49.518;11.280;2024-03-23T08:41:57;10.80;99.90
76211;DHT22;65003;49.518;11.280;2024-03-23T08:44:24;10.60;99.90
76211;DHT22;65003;49.518;11.280;2024-03-23T08:46:51;10.50;99.90
76211;DHT22;65003;49.518;11.280;2024-03-23T08:49:17;10.40;99.90
76211;DHT22;65003;49.518;11.280;2024-03-23T08:51:44;10.40;99.90
76211;DHT22;65003;49.518;11.280;2024-03-23T08:54:10;10.50;99.90
76211;DHT22;65003;49.518;11.280;2024-03-23T08:56:37;10.50;99.90
76211;DHT22;65003;49.518;11.280;2024-03-23T08:59:03;10.60;99.90
76211;DHT22;65003;49.518;11.280;2024-03-23T09:01:30;10.80;99.90
76211;DHT22;65003;49.518;11.280;2024-03-23T09:03:57;10.80;99.90
76211;DHT22;65003;49.518;11.280;2024-03-23T09:06:23;10.90;99.90
76211;DHT22;65003;49.518;11.280;2024-03-23T09:08:50;10.90;99.90
76211;DHT22;65003;49.518;11.280;2024-03-23T09:11:16;10.80;99.90
76211;DHT22;65003;49.518;11.280;2024-03-23T09:13:43;10.80;99.90
76211;DHT22;65003;49.518;11.280;2024-03-23T09:16:10;10.50;99.90
76211;DHT22;65003;49.518;11.280;2024-03-23T09:18:36;10.20;99.90
76211;DHT22;65003;49.518;11.280;2024-03-23T09:21:03;10.00;99.90
76211;DHT22;65003;49.518;11.280;2024-03-23T09:23:30;9.90;99.90
76211;DHT22;65003;49.518;11.280;2024-03-23T09:25:56;9.70;99.90
76211;DHT22;65003;49.518;11.280;2024-03-23T09:28:23;9.60;99.90
76211;DHT22;65003;49.518;11.280;2024-03-23T09:30:49;9.70;99.90
76211;DHT22;65003;49.518;11.280;2024-03-23T09:33:16;9.70;99.90
76211;DHT22;65003;49.518;11.280;2024-03-23T09:35:44;9.80;99.90
76211;DHT22;65003;49.518;11.280;2024-03-23T09:38:11;10.10;99.90
76211;DHT22;65003;49.518;11.280;2024-03-23T09:40:40;10.50;99.90
76211;DHT22;65003;49.518;11.280;2024-03-23T09:43:07;11.00;99.90
76211;DHT22;65003;49.518;11.280;2024-03-23T09:45:34;11.60;99.90
76211;DHT22;65003;49.518;11.280;2024-03-23T09:48:00;11.60;99.90
76211;DHT22;65003;49.518;11.280;2024-03-23T09:50:26;12.40;99.90
76211;DHT22;65003;49.518;11.280;2024-03-23T09:52:53;12.00;99.90
76211;DHT22;65003;49.518;11.280;2024-03-23T09:55:20;11.80;99.90
76211;DHT22;65003;49.518;11.280;2024-03-23T09:57:46;11.60;99.90
76211;DHT22;65003;49.518;11.280;2024-03-23T10:00:13;11.40;99.90
76211;DHT22;65003;49.518;11.280;2024-03-23T10:02:40;11.40;99.90
76211;DHT22;65003;49.518;11.280;2024-03-23T10:05:19;11.20;99.90
76211;DHT22;65003;49.518;11.280;2024-03-23T10:07:33;10.90;99.80
76211;DHT22;65003;49.518;11.280;2024-03-23T10:10:00;10.70;99.80
76211;DHT22;65003;49.518;11.280;2024-03-23T10:12:26;10.60;99.90
76211;DHT22;65003;49.518;11.280;2024-03-23T10:14:53;10.60;99.90
76211;DHT22;65003;49.518;11.280;2024-03-23T10:17:21;10.40;99.90
76211;DHT22;65003;49.518;11.280;2024-03-23T10:19:47;10.20;99.90
76211;DHT22;65003;49.518;11.280;2024-03-23T10:22:17;10.20;99.90
76211;DHT22;65003;49.518;11.280;2024-03-23T10:24:41;10.00;99.90
76211;DHT22;65003;49.518;11.280;2024-03-23T10:27:06;11.10;99.90
76211;DHT22;65003;49.518;11.280;2024-03-23T10:29:33;10.10;99.90
76211;DHT22;65003;49.518;11.280;2024-03-23T10:32:08;10.00;99.90
76211;DHT22;65003;49.518;11.280;2024-03-23T10:34:34;10.00;99.90
76211;DHT22;65003;49.518;11.280;2024-03-23T10:37:01;10.10;99.90
76211;DHT22;65003;49.518;11.280;2024-03-23T10:39:27;10.10;99.80
76211;DHT22;65003;49.518;11.280;2024-03-23T10:41:54;10.00;99.90
76211;DHT22;65003;49.518;11.280;2024-03-23T10:44:20;10.00;99.90
76211;DHT22;65003;49.518;11.280;2024-03-23T10:46:47;9.90;99.70
76211;DHT22;65003;49.518;11.280;2024-03-23T10:49:13;9.90;99.60
76211;DHT22;65003;49.518;11.280;2024-03-23T10:51:40;9.90;99.50
76211;DHT22;65003;49.518;11.280;2024-03-23T10:54:07;10.10;99.90
76211;DHT22;65003;49.518;11.280;2024-03-23T10:56:34;10.20;99.90
76211;DHT22;65003;49.518;11.280;2024-03-23T10:59:00;10.60;99.30
76211;DHT22;65003;49.518;11.280;2024-03-23T11:01:26;10.80;97.80
76211;DHT22;65003;49.518;11.280;2024-03-23T11:03:53;10.90;98.20
76211;DHT22;65003;49.518;11.280;2024-03-23T11:08:58;11.40;97.60
76211;DHT22;65003;49.518;11.280;2024-03-23T11:11:24;11.50;96.50
76211;DHT22;65003;49.518;11.280;2024-03-23T11:13:52;11.50;96.50
76211;DHT22;65003;49.518;11.280;2024-03-23T11:16:24;11.30;95.90
76211;DHT22;65003;49.518;11.280;2024-03-23T11:18:50;11.20;96.90
76211;DHT22;65003;49.518;11.280;2024-03-23T11:23:54;11.50;96.00
76211;DHT22;65003;49.518;11.280;2024-03-23T11:26:21;11.40;95.40
76211;DHT22;65003;49.518;11.280;2024-03-23T11:28:48;11.30;95.60
76211;DHT22;65003;49.518;11.280;2024-03-23T11:31:14;11.10;95.50
76211;DHT22;65003;49.518;11.280;2024-03-23T11:33:41;10.90;96.30
76211;DHT22;65003;49.518;11.280;2024-03-23T11:36:07;10.90;96.40
76211;DHT22;65003;49.518;11.280;2024-03-23T11:38:36;11.00;96.80
76211;DHT22;65003;49.518;11.280;2024-03-23T11:41:02;11.40;96.70
76211;DHT22;65003;49.518;11.280;2024-03-23T11:43:27;11.50;95.40
76211;DHT22;65003;49.518;11.280;2024-03-23T11:45:54;11.50;95.00
76211;DHT22;65003;49.518;11.280;2024-03-23T11:48:21;11.30;95.10
76211;DHT22;65003;49.518;11.280;2024-03-23T11:50:48;11.20;94.70
76211;DHT22;65003;49.518;11.280;2024-03-23T11:53:15;11.20;95.20
76211;DHT22;65003;49.518;11.280;2024-03-23T11:55:47;11.40;95.60
76211;DHT22;65003;49.518;11.280;2024-03-23T11:58:13;11.80;95.90
76211;DHT22;65003;49.518;11.280;2024-03-23T12:00:40;12.20;93.60
76211;DHT22;65003;49.518;11.280;2024-03-23T12:03:06;12.30;92.10
76211;DHT22;65003;49.518;11.280;2024-03-23T12:05:33;12.10;92.20
76211;DHT22;65003;49.518;11.280;2024-03-23T12:10:38;12.00;92.60
76211;DHT22;65003;49.518;11.280;2024-03-23T12:13:04;11.60;92.20
76211;DHT22;65003;49.518;11.280;2024-03-23T12:15:31;11.40;92.50
76211;DHT22;65003;49.518;11.280;2024-03-23T12:18:12;11.30;93.50
76211;DHT22;65003;49.518;11.280;2024-03-23T12:20:39;11.30;94.40
76211;DHT22;65003;49.518;11.280;2024-03-23T12:23:09;11.60;92.90
76211;DHT22;65003;49.518;11.280;2024-03-23T12:25:35;11.70;92.70
76211;DHT22;65003;49.518;11.280;2024-03-23T12:28:02;11.70;91.60
76211;DHT22;65003;49.518;11.280;2024-03-23T12:30:28;11.60;91.60
76211;DHT22;65003;49.518;11.280;2024-03-23T12:32:55;11.60;90.60
76211;DHT22;65003;49.518;11.280;2024-03-23T12:35:21;11.50;90.40
76211;DHT22;65003;49.518;11.280;2024-03-23T12:37:48;11.40;90.20
76211;DHT22;65003;49.518;11.280;2024-03-23T12:40:14;11.60;90.60
76211;DHT22;65003;49.518;11.280;2024-03-23T12:42:41;11.60;87.80
76211;DHT22;65003;49.518;11.280;2024-03-23T12:45:08;11.70;87.10
76211;DHT22;65003;49.518;11.280;2024-03-23T12:47:34;11.70;87.60
76211;DHT22;65003;49.518;11.280;2024-03-23T12:50:01;11.80;85.40
76211;DHT22;65003;49.518;11.280;2024-03-23T12:52:27;11.90;86.20
76211;DHT22;65003;49.518;11.280;2024-03-23T12:54:55;12.10;84.20
76211;DHT22;65003;49.518;11.280;2024-03-23T12:57:23;12.20;83.60
76211;DHT22;65003;49.518;11.280;2024-03-23T12:59:49;12.30;84.20
76211;DHT22;65003;49.518;11.280;2024-03-23T13:02:16;12.40;84.50
76211;DHT22;65003;49.518;11.280;2024-03-23T13:04:42;12.50;79.50
76211;DHT22;65003;49.518;11.280;2024-03-23T13:07:09;12.30;77.40
76211;DHT22;65003;49.518;11.280;2024-03-23T13:09:35;12.00;77.20
76211;DHT22;65003;49.518;11.280;2024-03-23T13:12:02;11.80;76.90
76211;DHT22;65003;49.518;11.280;2024-03-23T13:14:29;11.50;78.60
76211;DHT22;65003;49.518;11.280;2024-03-23T13:16:55;11.40;79.30
76211;DHT22;65003;49.518;11.280;2024-03-23T13:19:22;11.20;77.70
76211;DHT22;65003;49.518;11.280;2024-03-23T13:21:48;11.10;77.30
76211;DHT22;65003;49.518;11.280;2024-03-23T13:24:15;11.00;78.20
76211;DHT22;65003;49.518;11.280;2024-03-23T13:26:41;11.20;81.00
76211;DHT22;65003;49.518;11.280;2024-03-23T13:29:08;10.50;81.20
76211;DHT22;65003;49.518;11.280;2024-03-23T13:31:35;11.80;79.60
76211;DHT22;65003;49.518;11.280;2024-03-23T13:34:01;12.10;81.30
76211;DHT22;65003;49.518;11.280;2024-03-23T13:36:28;12.40;80.30
76211;DHT22;65003;49.518;11.280;2024-03-23T13:38:54;12.60;80.40
76211;DHT22;65003;49.518;11.280;2024-03-23T13:41:21;12.60;78.30
76211;DHT22;65003;49.518;11.280;2024-03-23T13:43:48;12.50;76.40
76211;DHT22;65003;49.518;11.280;2024-03-23T13:46:14;12.30;74.60
76211;DHT22;65003;49.518;11.280;2024-03-23T13:48:41;12.10;75.80
76211;DHT22;65003;49.518;11.280;2024-03-23T13:51:07;12.10;77.40
76211;DHT22;65003;49.518;11.280;2024-03-23T13:53:34;12.30;77.20
76211;DHT22;65003;49.518;11.280;2024-03-23T13:56:00;12.40;75.00
76211;DHT22;65003;49.518;11.280;2024-03-23T13:58:27;12.50;74.60
76211;DHT22;65003;49.518;11.280;2024-03-23T14:00:55;12.60;73.80
76211;DHT22;65003;49.518;11.280;2024-03-23T14:03:20;12.60;73.20
76211;DHT22;65003;49.518;11.280;2024-03-23T14:05:47;12.70;72.90
76211;DHT22;65003;49.518;11.280;2024-03-23T14:08:14;12.60;70.80
76211;DHT22;65003;49.518;11.280;2024-03-23T14:10:41;12.50;70.80
76211;DHT22;65003;49.518;11.280;2024-03-23T14:13:07;12.50;70.30
76211;DHT22;65003;49.518;11.280;2024-03-23T14:15:33;12.60;70.70
76211;DHT22;65003;49.518;11.280;2024-03-23T14:18:00;12.50;70.00
76211;DHT22;65003;49.518;11.280;2024-03-23T14:20:26;12.50;71.40
76211;DHT22;65003;49.518;11.280;2024-03-23T14:22:53;12.60;72.60
76211;DHT22;65003;49.518;11.280;2024-03-23T14:25:20;12.80;72.40
76211;DHT22;65003;49.518;11.280;2024-03-23T14:27:46;12.90;71.20
76211;DHT22;65003;49.518;11.280;2024-03-23T14:30:13;13.00;70.40
76211;DHT22;65003;49.518;11.280;2024-03-23T14:32:40;13.00;72.00
76211;DHT22;65003;49.518;11.280;2024-03-23T14:35:06;12.90;72.40
76211;DHT22;65003;49.518;11.280;2024-03-23T14:37:33;12.80;73.80
76211;DHT22;65003;49.518;11.280;2024-03-23T14:40:00;12.70;74.10
76211;DHT22;65003;49.518;11.280;2024-03-23T14:42:26;12.60;73.80
76211;DHT22;65003;49.518;11.280;2024-03-23T14:44:53;13.40;74.20
76211;DHT22;65003;49.518;11.280;2024-03-23T14:47:19;12.60;74.70
76211;DHT22;65003;49.518;11.280;2024-03-23T14:49:46;12.60;74.90
76211;DHT22;65003;49.518;11.280;2024-03-23T14:52:13;12.50;73.70
76211;DHT22;65003;49.518;11.280;2024-03-23T14:54:39;12.40;73.20
76211;DHT22;65003;49.518;11.280;2024-03-23T14:57:06;12.30;74.20
76211;DHT22;65003;49.518;11.280;2024-03-23T14:59:33;12.20;73.40
76211;DHT22;65003;49.518;11.280;2024-03-23T15:02:00;12.10;75.60
76211;DHT22;65003;49.518;11.280;2024-03-23T15:04:26;12.00;78.00
76211;DHT22;65003;49.518;11.280;2024-03-23T15:06:53;12.10;77.90
76211;DHT22;65003;49.518;11.280;2024-03-23T15:09:20;11.90;77.50
76211;DHT22;65003;49.518;11.280;2024-03-23T15:11:46;11.80;79.00
76211;DHT22;65003;49.518;11.280;2024-03-23T15:14:14;11.70;79.40
76211;DHT22;65003;49.518;11.280;2024-03-23T15:16:40;11.50;81.40
76211;DHT22;65003;49.518;11.280;2024-03-23T15:19:07;10.30;79.80
76211;DHT22;65003;49.518;11.280;2024-03-23T15:21:33;11.40;80.80
76211;DHT22;65003;49.518;11.280;2024-03-23T15:24:00;11.20;80.80
76211;DHT22;65003;49.518;11.280;2024-03-23T15:26:27;11.10;81.20
76211;DHT22;65003;49.518;11.280;2024-03-23T15:28:53;10.90;82.90
76211;DHT22;65003;49.518;11.280;2024-03-23T15:31:33;10.60;84.50
76211;DHT22;65003;49.518;11.280;2024-03-23T15:33:59;10.50;86.80
76211;DHT22;65003;49.518;11.280;2024-03-23T15:36:26;10.40;91.60
76211;DHT22;65003;49.518;11.280;2024-03-23T15:38:52;10.30;94.50
76211;DHT22;65003;49.518;11.280;2024-03-23T15:41:19;10.00;96.50
76211;DHT22;65003;49.518;11.280;2024-03-23T15:43:46;9.70;98.20
76211;DHT22;65003;49.518;11.280;2024-03-23T15:46:12;9.50;99.40
76211;DHT22;65003;49.518;11.280;2024-03-23T15:48:39;9.40;99.90
76211;DHT22;65003;49.518;11.280;2024-03-23T15:51:05;9.50;99.90
76211;DHT22;65003;49.518;11.280;2024-03-23T15:53:32;9.60;99.90
76211;DHT22;65003;49.518;11.280;2024-03-23T15:55:59;9.70;99.90
76211;DHT22;65003;49.518;11.280;2024-03-23T15:58:25;9.70;99.90
76211;DHT22;65003;49.518;11.280;2024-03-23T16:00:56;9.70;99.90
76211;DHT22;65003;49.518;11.280;2024-03-23T16:03:23;9.70;99.90
76211;DHT22;65003;49.518;11.280;2024-03-23T16:05:52;9.80;99.90
76211;DHT22;65003;49.518;11.280;2024-03-23T16:08:18;9.80;99.90
76211;DHT22;65003;49.518;11.280;2024-03-23T16:10:44;9.80;99.50
76211;DHT22;65003;49.518;11.280;2024-03-23T16:13:11;9.90;99.90
76211;DHT22;65003;49.518;11.280;2024-03-23T16:15:37;9.90;99.60
76211;DHT22;65003;49.518;11.280;2024-03-23T16:18:04;9.90;99.90
76211;DHT22;65003;49.518;11.280;2024-03-23T16:20:31;9.80;99.90
76211;DHT22;65003;49.518;11.280;2024-03-23T16:22:57;9.80;99.90
76211;DHT22;65003;49.518;11.280;2024-03-23T16:25:24;9.80;99.90
76211;DHT22;65003;49.518;11.280;2024-03-23T16:27:50;9.70;99.90
76211;DHT22;65003;49.518;11.280;2024-03-23T16:30:17;9.60;99.30
76211;DHT22;65003;49.518;11.280;2024-03-23T16:32:44;9.60;99.60
76211;DHT22;65003;49.518;11.280;2024-03-23T16:35:11;9.60;99.90
76211;DHT22;65003;49.518;11.280;2024-03-23T16:37:37;9.60;99.20
76211;DHT22;65003;49.518;11.280;2024-03-23T16:40:04;9.50;99.10
76211;DHT22;65003;49.518;11.280;2024-03-23T16:42:31;9.40;99.70
76211;DHT22;65003;49.518;11.280;2024-03-23T16:44:57;9.40;99.30
76211;DHT22;65003;49.518;11.280;2024-03-23T16:47:24;9.30;99.40
76211;DHT22;65003;49.518;11.280;2024-03-23T16:49:51;9.30;99.20
76211;DHT22;65003;49.518;11.280;2024-03-23T16:52:17;9.30;98.80
76211;DHT22;65003;49.518;11.280;2024-03-23T16:54:44;9.30;98.70
76211;DHT22;65003;49.518;11.280;2024-03-23T16:57:10;9.30;99.90
76211;DHT22;65003;49.518;11.280;2024-03-23T16:59:37;9.40;99.90
76211;DHT22;65003;49.518;11.280;2024-03-23T17:02:03;9.50;99.90
76211;DHT22;65003;49.518;11.280;2024-03-23T17:04:30;9.60;99.90
76211;DHT22;65003;49.518;11.280;2024-03-23T17:06:57;9.60;99.90
76211;DHT22;65003;49.518;11.280;2024-03-23T17:09:23;9.80;99.80
76211;DHT22;65003;49.518;11.280;2024-03-23T17:11:50;9.90;98.10
76211;DHT22;65003;49.518;11.280;2024-03-23T17:14:16;9.70;97.50
76211;DHT22;65003;49.518;11.280;2024-03-23T17:16:43;9.70;97.20
76211;DHT22;65003;49.518;11.280;2024-03-23T17:19:10;9.50;97.10
76211;DHT22;65003;49.518;11.280;2024-03-23T17:21:36;9.50;97.20
76211;DHT22;65003;49.518;11.280;2024-03-23T17:24:03;9.50;96.80
76211;DHT22;65003;49.518;11.280;2024-03-23T17:26:30;9.40;96.70
76211;DHT22;65003;49.518;11.280;2024-03-23T17:28:56;9.30;96.70
76211;DHT22;65003;49.518;11.280;2024-03-23T17:31:23;9.30;96.90
76211;DHT22;65003;49.518;11.280;2024-03-23T17:33:50;9.20;96.90
76211;DHT22;65003;49.518;11.280;2024-03-23T17:36:16;9.20;97.10
76211;DHT22;65003;49.518;11.280;2024-03-23T17:38:42;9.10;96.40
76211;DHT22;65003;49.518;11.280;2024-03-23T17:41:09;9.00;96.20
76211;DHT22;65003;49.518;11.280;2024-03-23T17:43:36;9.00;96.20
76211;DHT22;65003;49.518;11.280;2024-03-23T17:46:02;9.00;96.10
76211;DHT22;65003;49.518;11.280;2024-03-23T17:48:29;9.10;96.50
76211;DHT22;65003;49.518;11.280;2024-03-23T17:51:00;9.20;96.60
76211;DHT22;65003;49.518;11.280;2024-03-23T17:53:26;9.30;96.20
76211;DHT22;65003;49.518;11.280;2024-03-23T17:55:53;9.40;95.50
76211;DHT22;65003;49.518;11.280;2024-03-23T17:58:19;9.40;95.10
76211;DHT22;65003;49.518;11.280;2024-03-23T18:00:46;9.40;94.90
76211;DHT22;65003;49.518;11.280;2024-03-23T18:03:12;9.30;95.00
76211;DHT22;65003;49.518;11.280;2024-03-23T18:05:39;9.20;95.10
76211;DHT22;65003;49.518;11.280;2024-03-23T18:08:06;9.30;95.10
76211;DHT22;65003;49.518;11.280;2024-03-23T18:10:32;9.30;95.10
76211;DHT22;65003;49.518;11.280;2024-03-23T18:12:59;9.20;95.80
76211;DHT22;65003;49.518;11.280;2024-03-23T18:15:25;9.10;96.20
76211;DHT22;65003;49.518;11.280;2024-03-23T18:17:52;9.00;95.90
76211;DHT22;65003;49.518;11.280;2024-03-23T18:20:18;9.10;96.40
76211;DHT22;65003;49.518;11.280;2024-03-23T18:22:45;9.00;96.50
76211;DHT22;65003;49.518;11.280;2024-03-23T18:25:12;9.00;96.50
76211;DHT22;65003;49.518;11.280;2024-03-23T18:27:38;9.10;96.80
76211;DHT22;65003;49.518;11.280;2024-03-23T18:30:05;9.10;96.20
76211;DHT22;65003;49.518;11.280;2024-03-23T18:32:32;9.00;96.10
76211;DHT22;65003;49.518;11.280;2024-03-23T18:34:58;9.00;95.70
76211;DHT22;65003;49.518;11.280;2024-03-23T18:37:25;9.00;95.70
76211;DHT22;65003;49.518;11.280;2024-03-23T18:39:51;9.00;95.30
76211;DHT22;65003;49.518;11.280;2024-03-23T18:42:18;8.90;95.40
76211;DHT22;65003;49.518;11.280;2024-03-23T18:44:45;9.00;95.70
76211;DHT22;65003;49.518;11.280;2024-03-23T18:47:11;9.00;95.70
76211;DHT22;65003;49.518;11.280;2024-03-23T18:49:38;8.90;95.50
76211;DHT22;65003;49.518;11.280;2024-03-23T18:52:04;8.90;95.40
76211;DHT22;65003;49.518;11.280;2024-03-23T18:54:31;8.80;95.80
76211;DHT22;65003;49.518;11.280;2024-03-23T18:56:58;8.60;96.10
76211;DHT22;65003;49.518;11.280;2024-03-23T18:59:24;8.50;96.50
76211;DHT22;65003;49.518;11.280;2024-03-23T19:01:51;8.50;96.70
76211;DHT22;65003;49.518;11.280;2024-03-23T19:04:17;8.50;96.90
76211;DHT22;65003;49.518;11.280;2024-03-23T19:06:44;8.40;96.70
76211;DHT22;65003;49.518;11.280;2024-03-23T19:09:11;8.50;96.70
76211;DHT22;65003;49.518;11.280;2024-03-23T19:11:37;8.60;96.40
76211;DHT22;65003;49.518;11.280;2024-03-23T19:14:04;8.70;96.00
76211;DHT22;65003;49.518;11.280;2024-03-23T19:16:30;8.80;95.70
76211;DHT22;65003;49.518;11.280;2024-03-23T19:18:57;8.90;95.30
76211;DHT22;65003;49.518;11.280;2024-03-23T19:21:23;9.00;94.80
76211;DHT22;65003;49.518;11.280;2024-03-23T19:23:50;9.20;94.60
76211;DHT22;65003;49.518;11.280;2024-03-23T19:26:17;9.20;94.20
76211;DHT22;65003;49.518;11.280;2024-03-23T19:28:43;9.20;94.40
76211;DHT22;65003;49.518;11.280;2024-03-23T19:31:10;9.20;95.60
76211;DHT22;65003;49.518;11.280;2024-03-23T19:33:36;9.00;97.10
76211;DHT22;65003;49.518;11.280;2024-03-23T19:36:03;8.80;98.30
76211;DHT22;65003;49.518;11.280;2024-03-23T19:38:30;8.70;99.20
76211;DHT22;65003;49.518;11.280;2024-03-23T19:40:57;8.60;99.90
76211;DHT22;65003;49.518;11.280;2024-03-23T19:43:23;8.60;99.90
76211;DHT22;65003;49.518;11.280;2024-03-23T19:45:49;8.50;99.90
76211;DHT22;65003;49.518;11.280;2024-03-23T19:48:16;8.40;99.90
76211;DHT22;65003;49.518;11.280;2024-03-23T19:50:42;8.30;99.90
76211;DHT22;65003;49.518;11.280;2024-03-23T19:53:09;8.30;99.90
76211;DHT22;65003;49.518;11.280;2024-03-23T19:55:36;8.20;99.90
76211;DHT22;65003;49.518;11.280;2024-03-23T19:58:05;8.20;99.90
76211;DHT22;65003;49.518;11.280;2024-03-23T20:00:31;8.10;99.90
76211;DHT22;65003;49.518;11.280;2024-03-23T20:02:58;8.10;99.90
76211;DHT22;65003;49.518;11.280;2024-03-23T20:05:24;8.10;99.90
76211;DHT22;65003;49.518;11.280;2024-03-23T20:07:51;8.20;99.90
76211;DHT22;65003;49.518;11.280;2024-03-23T20:10:18;8.30;99.90
76211;DHT22;65003;49.518;11.280;2024-03-23T20:12:44;8.30;99.90
76211;DHT22;65003;49.518;11.280;2024-03-23T20:15:11;8.20;99.90
76211;DHT22;65003;49.518;11.280;2024-03-23T20:17:37;8.10;99.90
76211;DHT22;65003;49.518;11.280;2024-03-23T20:20:05;8.10;99.90
76211;DHT22;65003;49.518;11.280;2024-03-23T20:22:32;8.10;99.90
76211;DHT22;65003;49.518;11.280;2024-03-23T20:24:58;8.00;99.90
76211;DHT22;65003;49.518;11.280;2024-03-23T20:27:25;8.00;99.90
76211;DHT22;65003;49.518;11.280;2024-03-23T20:29:51;8.00;99.90
76211;DHT22;65003;49.518;11.280;2024-03-23T20:32:18;8.10;99.90
76211;DHT22;65003;49.518;11.280;2024-03-23T20:34:44;8.20;99.90
76211;DHT22;65003;49.518;11.280;2024-03-23T20:37:11;8.30;99.90
76211;DHT22;65003;49.518;11.280;2024-03-23T20:39:38;8.40;99.90
76211;DHT22;65003;49.518;11.280;2024-03-23T20:42:04;8.30;99.90
76211;DHT22;65003;49.518;11.280;2024-03-23T20:44:31;8.20;99.90
76211;DHT22;65003;49.518;11.280;2024-03-23T20:46:58;7.90;99.50
76211;DHT22;65003;49.518;11.280;2024-03-23T20:49:24;7.90;99.50
76211;DHT22;65003;49.518;11.280;2024-03-23T20:51:51;7.80;99.80